Time;durP1;ratioP1;P1;durP2;ratioP2;P2;SDS_P1;SDS_P2;PMS_P1;PMS_P2;Temp;Humidity;BMP_temperature;BMP_pressure;BME280_temperature;BME280_humidity;BME280_pressure;Samples;Min_cycle;Max_cycle;Signal;HPM_P1;HPM_P2
2020/12/31 00:00:05;;;;;;;8.67;5.97;;;3.50;99.90;;;;;;5114070;28;20048;-73
2020/12/31 00:02:31;;;;;;;8.50;6.07;;;3.50;99.90;;;;;;5115295;28;20051;-72
2020/12/31 00:04:57;;;;;;;11.03;7.23;;;3.50;99.90;;;;;;5115260;28;20519;-73
2020/12/31 00:07:22;;;;;;;10.77;6.90;;;3.50;99.90;;;;;;5113984;28;20051;-73
2020/12/31 00:09:48;;;;;;;9.37;5.97;;;3.50;99.90;;;;;;5117832;27;20078;-72
2020/12/31 00:12:14;;;;;;;10.67;6.73;;;3.60;99.90;;;;;;5116041;28;20042;-73
2020/12/31 00:14:40;;;;;;;9.60;6.40;;;3.60;99.90;;;;;;5116844;28;20020;-73
2020/12/31 00:17:06;;;;;;;11.90;7.07;;;3.60;99.90;;;;;;5116039;28;20016;-72
2020/12/31 00:19:32;;;;;;;10.63;7.22;;;3.70;99.90;;;;;;5115423;28;20035;-73
2020/12/31 00:21:58;;;;;;;10.57;7.32;;;3.70;99.90;;;;;;5117578;28;20020;-72
2020/12/31 00:24:23;;;;;;;8.13;5.60;;;3.70;99.90;;;;;;5115629;28;20110;-73
2020/12/31 00:26:49;;;;;;;9.23;6.03;;;3.70;99.90;;;;;;5115854;28;20028;-73
2020/12/31 00:29:15;;;;;;;9.63;6.00;;;3.80;99.90;;;;;;5115429;28;20100;-72
2020/12/31 00:31:40;;;;;;;9.80;6.30;;;3.90;99.90;;;;;;5117225;28;20091;-73
2020/12/31 00:34:06;;;;;;;7.80;5.17;;;4.00;99.90;;;;;;5116344;28;20027;-73
2020/12/31 00:36:33;;;;;;;9.07;5.82;;;4.30;99.90;;;;;;5114980;28;20016;-72
2020/12/31 00:38:59;;;;;;;;;;;4.20;99.90;;;;;;5115474;28;20027;-72
2020/12/31 00:41:24;;;;;;;8.95;5.80;;;4.10;99.90;;;;;;5116807;28;19904;-73
2020/12/31 00:43:50;;;;;;;8.27;5.40;;;4.00;99.90;;;;;;5114900;28;20072;-73
2020/12/31 00:46:16;;;;;;;7.63;5.03;;;4.00;99.90;;;;;;5114733;28;20030;-72
2020/12/31 00:48:41;;;;;;;9.27;6.27;;;4.00;99.90;;;;;;5115593;28;20055;-73
2020/12/31 00:51:08;;;;;;;7.10;5.23;;;4.10;99.90;;;;;;5114846;28;20024;-73
2020/12/31 00:53:33;;;;;;;7.07;4.85;;;4.00;99.90;;;;;;5113948;28;20043;-73
2020/12/31 00:55:59;;;;;;;9.53;4.93;;;3.90;99.90;;;;;;5114654;28;20479;-73
2020/12/31 00:58:25;;;;;;;8.33;5.33;;;3.90;99.90;;;;;;5116316;28;20043;-72
2020/12/31 01:00:50;;;;;;;6.83;5.13;;;3.80;99.90;;;;;;5116581;28;20030;-72
2020/12/31 01:03:16;;;;;;;8.07;4.67;;;3.80;99.90;;;;;;5114436;28;20027;-73
2020/12/31 01:05:42;;;;;;;10.27;5.93;;;4.00;99.90;;;;;;5115579;28;20058;-73
2020/12/31 01:08:07;;;;;;;7.40;4.90;;;3.90;99.90;;;;;;5115926;28;20016;-72
2020/12/31 01:10:33;;;;;;;9.03;5.43;;;3.90;99.90;;;;;;5117351;28;20133;-71
2020/12/31 01:12:59;;;;;;;7.50;4.73;;;3.80;99.90;;;;;;5116744;28;20122;-72
2020/12/31 01:15:24;;;;;;;7.13;5.10;;;3.70;99.90;;;;;;5118536;28;20027;-72
2020/12/31 01:17:50;;;;;;;7.63;4.70;;;3.70;99.90;;;;;;5116478;28;20024;-73
2020/12/31 01:20:16;;;;;;;8.20;5.00;;;3.60;99.90;;;;;;5114368;28;20028;-72
2020/12/31 01:22:41;;;;;;;7.77;4.80;;;3.50;99.90;;;;;;5114047;28;20039;-73
2020/12/31 01:25:07;;;;;;;9.47;5.40;;;3.50;99.90;;;;;;5113404;28;20027;-72
2020/12/31 01:27:32;;;;;;;8.00;5.10;;;3.50;99.90;;;;;;5114908;28;20032;-72
2020/12/31 01:29:58;;;;;;;8.67;5.07;;;3.50;99.90;;;;;;5113749;28;20045;-73
2020/12/31 01:32:25;;;;;;;6.47;4.78;;;3.60;99.90;;;;;;5114941;28;20107;-72
2020/12/31 01:34:51;;;;;;;7.63;4.78;;;3.70;99.90;;;;;;5112763;28;20020;-73
2020/12/31 01:37:18;;;;;;;8.85;5.28;;;3.90;99.90;;;;;;5112279;28;20380;-72
2020/12/31 01:39:45;;;;;;;7.15;4.70;;;3.90;99.90;;;;;;5113746;28;20038;-73
2020/12/31 01:42:11;;;;;;;7.65;5.03;;;3.80;99.90;;;;;;5112057;28;20039;-73
2020/12/31 01:44:37;;;;;;;9.02;4.93;;;3.80;99.90;;;;;;5112016;28;20047;-72
2020/12/31 01:47:03;;;;;;;7.03;4.72;;;3.80;99.90;;;;;;5112222;28;20503;-71
2020/12/31 01:49:31;;;;;;;8.90;4.65;;;3.80;99.90;;;;;;5113385;28;20059;-72
2020/12/31 01:51:58;;;;;;;6.72;4.13;;;3.60;99.90;;;;;;5134313;22;20449;-67
2020/12/31 01:54:24;;;;;;;9.63;4.75;;;3.50;99.90;;;;;;5113892;28;20046;-66
2020/12/31 01:56:52;;;;;;;;;;;3.40;99.90;;;;;;5095643;28;20015;-66
2020/12/31 01:59:18;;;;;;;9.15;5.28;;;3.40;99.90;;;;;;5113495;28;19903;-66
2020/12/31 02:01:44;;;;;;;6.93;4.40;;;3.40;99.90;;;;;;5113435;28;20395;-66
2020/12/31 02:04:09;;;;;;;5.97;3.73;;;3.50;99.90;;;;;;5113545;28;20023;-66
2020/12/31 02:06:37;;;;;;;7.47;5.00;;;3.50;99.90;;;;;;5113786;28;20030;-66
2020/12/31 02:09:04;;;;;;;6.57;4.40;;;3.40;99.90;;;;;;5099278;28;20028;-66
2020/12/31 02:11:29;;;;;;;7.10;4.97;;;3.40;99.90;;;;;;5099287;28;20034;-66
2020/12/31 02:13:55;;;;;;;9.47;5.97;;;3.30;99.90;;;;;;5099317;28;20020;-66
2020/12/31 02:16:29;;;;;;;13.25;9.63;;;3.40;99.90;;;;;;5117696;28;20529;-66
2020/12/31 02:19:10;;;;;;;7.70;3.38;;;3.40;99.90;;;;;;5118036;28;20519;-66
2020/12/31 02:21:37;;;;;;;7.38;5.80;;;3.30;99.90;;;;;;5117672;28;20031;-66
2020/12/31 02:24:07;;;;;;;9.88;5.45;;;3.30;99.90;;;;;;5117405;28;20027;-66
2020/12/31 02:26:34;;;;;;;8.98;5.07;;;3.20;99.90;;;;;;5117327;28;20046;-66
2020/12/31 02:29:01;;;;;;;5.63;3.88;;;3.20;99.90;;;;;;5117620;28;20016;-66
2020/12/31 02:31:28;;;;;;;7.13;3.88;;;3.30;99.90;;;;;;5117103;28;20480;-66
2020/12/31 02:33:56;;;;;;;5.97;3.88;;;3.30;99.90;;;;;;5117266;28;20437;-66
2020/12/31 02:36:26;;;;;;;6.47;3.85;;;3.30;99.90;;;;;;5118132;28;20331;-67
2020/12/31 02:38:53;;;;;;;5.68;4.13;;;3.20;99.90;;;;;;5117385;28;20106;-66
2020/12/31 02:41:19;;;;;;;4.68;3.67;;;3.20;99.90;;;;;;5116890;28;20049;-67
2020/12/31 02:43:45;;;;;;;5.68;3.65;;;3.20;99.90;;;;;;5116996;28;20440;-66
2020/12/31 02:46:13;;;;;;;8.15;5.43;;;3.40;99.90;;;;;;5116992;28;20099;-67
2020/12/31 02:48:40;;;;;;;7.53;4.20;;;3.30;99.90;;;;;;5116842;28;20185;-67
2020/12/31 02:51:07;;;;;;;7.47;4.57;;;3.30;99.90;;;;;;5116982;28;20024;-67
2020/12/31 02:53:33;;;;;;;7.57;4.15;;;3.20;99.90;;;;;;5116870;28;20480;-67
2020/12/31 02:55:59;;;;;;;6.55;4.45;;;3.20;99.90;;;;;;5117005;28;20106;-67
2020/12/31 02:58:25;;;;;;;5.53;3.50;;;3.10;99.90;;;;;;5116797;28;20529;-67
2020/12/31 03:00:51;;;;;;;8.40;3.83;;;3.10;99.90;;;;;;5098626;28;20035;-67
2020/12/31 03:03:17;;;;;;;5.97;4.05;;;3.00;99.90;;;;;;5116776;28;20020;-67
2020/12/31 03:05:42;;;;;;;5.60;3.88;;;2.90;99.90;;;;;;5116595;28;20395;-67
2020/12/31 03:08:08;;;;;;;4.80;3.27;;;3.00;99.90;;;;;;5116810;28;20020;-67
2020/12/31 03:10:34;;;;;;;8.30;3.73;;;2.90;99.90;;;;;;5116467;28;20024;-67
2020/12/31 03:12:59;;;;;;;5.13;3.47;;;2.90;99.90;;;;;;5116317;28;20028;-67
2020/12/31 03:15:25;;;;;;;6.95;3.80;;;3.10;99.90;;;;;;5116715;28;20361;-67
2020/12/31 03:17:51;;;;;;;5.85;3.88;;;3.10;99.90;;;;;;5117029;28;20392;-67
2020/12/31 03:20:17;;;;;;;5.00;3.23;;;3.10;99.90;;;;;;5116688;28;20464;-67
2020/12/31 03:22:42;;;;;;;6.27;3.47;;;3.00;99.90;;;;;;5116912;28;20094;-67
2020/12/31 03:25:08;;;;;;;5.10;3.60;;;3.00;99.90;;;;;;5117479;28;20076;-67
2020/12/31 03:27:34;;;;;;;6.38;3.88;;;2.90;99.90;;;;;;5116791;28;20280;-67
2020/12/31 03:30:00;;;;;;;5.87;3.40;;;2.90;99.90;;;;;;5097959;28;20027;-67
2020/12/31 03:32:26;;;;;;;5.70;3.38;;;2.90;99.90;;;;;;5116088;28;20030;-67
2020/12/31 03:34:51;;;;;;;6.60;3.00;;;3.00;99.90;;;;;;5116338;28;20038;-67
2020/12/31 03:37:17;;;;;;;4.57;3.03;;;2.90;99.90;;;;;;5116284;28;20020;-67
2020/12/31 03:39:43;;;;;;;5.07;3.27;;;3.10;99.90;;;;;;5097863;28;20020;-67
2020/12/31 03:42:09;;;;;;;5.30;3.58;;;3.00;99.90;;;;;;5097695;28;20039;-67
2020/12/31 03:44:35;;;;;;;4.13;2.97;;;2.90;99.90;;;;;;5097922;28;20023;-67
2020/12/31 03:47:01;;;;;;;4.55;3.20;;;2.90;99.90;;;;;;5116081;28;20027;-67
2020/12/31 03:49:27;;;;;;;7.28;3.22;;;2.90;99.90;;;;;;5116021;28;20080;-67
2020/12/31 03:51:53;;;;;;;4.87;3.37;;;2.90;99.90;;;;;;5115581;28;20106;-67
2020/12/31 03:54:18;;;;;;;6.17;3.43;;;2.90;99.90;;;;;;5115895;28;20026;-67
2020/12/31 03:56:44;;;;;;;7.63;3.30;;;2.80;99.90;;;;;;5115836;28;20076;-67
2020/12/31 03:59:10;;;;;;;8.10;3.70;;;2.90;99.90;;;;;;5115944;28;20043;-67
2020/12/31 04:01:36;;;;;;;4.80;3.15;;;3.00;99.90;;;;;;5116527;28;20031;-66
2020/12/31 04:04:02;;;;;;;6.05;3.42;;;3.20;99.90;;;;;;5116732;28;20499;-66
2020/12/31 04:06:29;;;;;;;5.18;3.03;;;3.20;99.90;;;;;;5115810;28;20536;-67
2020/12/31 04:08:55;;;;;;;4.68;3.25;;;3.10;99.90;;;;;;5115755;28;20032;-67
2020/12/31 04:11:21;;;;;;;4.45;3.00;;;3.10;99.90;;;;;;5115544;28;20030;-67
2020/12/31 04:13:46;;;;;;;4.78;3.03;;;3.00;99.90;;;;;;5097078;28;20020;-67
2020/12/31 04:16:12;;;;;;;5.83;3.33;;;3.00;99.90;;;;;;5115220;28;20032;-67
2020/12/31 04:18:38;;;;;;;5.27;2.73;;;3.20;99.90;;;;;;5115552;28;20599;-67
2020/12/31 04:21:03;;;;;;;4.77;2.83;;;3.10;99.90;;;;;;5115166;28;20054;-66
2020/12/31 04:23:29;;;;;;;4.82;3.13;;;3.10;99.90;;;;;;5096991;28;20027;-67
2020/12/31 04:25:55;;;;;;;4.77;3.00;;;3.10;99.90;;;;;;5115431;28;20107;-66
2020/12/31 04:28:20;;;;;;;6.03;3.50;;;3.10;99.90;;;;;;5114976;28;20023;-67
2020/12/31 04:30:47;;;;;;;4.50;3.10;;;3.10;99.90;;;;;;5114378;28;20023;-66
2020/12/31 04:33:13;;;;;;;4.55;3.30;;;3.20;99.90;;;;;;5096832;28;20023;-66
2020/12/31 04:35:39;;;;;;;4.60;2.95;;;3.10;99.90;;;;;;5096784;28;20119;-66
2020/12/31 04:38:05;;;;;;;3.97;2.80;;;3.10;99.90;;;;;;5115199;28;20041;-66
2020/12/31 04:40:34;;;;;;;4.10;2.83;;;3.10;99.90;;;;;;5115061;28;20097;-66
2020/12/31 04:43:01;;;;;;;7.22;3.20;;;3.00;99.90;;;;;;5115388;28;20066;-66
2020/12/31 04:45:28;;;;;;;;;;;2.90;99.90;;;;;;5097164;28;20028;-65
2020/12/31 04:48:07;;;;;;;6.28;3.28;;;2.90;99.90;;;;;;5115005;28;19908;-66
2020/12/31 04:50:34;;;;;;;4.68;2.85;;;2.80;99.90;;;;;;5096858;28;20023;-66
2020/12/31 04:53:06;;;;;;;5.53;3.08;;;2.80;99.90;;;;;;5096364;28;20089;-65
2020/12/31 04:55:45;;;;;;;4.20;2.70;;;2.90;99.90;;;;;;5114826;28;20023;-65
2020/12/31 04:58:13;;;;;;;5.40;2.95;;;3.00;99.90;;;;;;5096366;28;20102;-65
2020/12/31 05:00:39;;;;;;;5.20;2.78;;;3.30;99.90;;;;;;5114806;28;20050;-66
2020/12/31 05:03:05;;;;;;;4.35;2.60;;;3.30;99.90;;;;;;5114428;28;20510;-66
2020/12/31 05:05:32;;;;;;;6.18;2.92;;;3.30;99.90;;;;;;5114316;28;20027;-65
2020/12/31 05:07:58;;;;;;;;;;;3.20;99.90;;;;;;5114903;28;20089;-65
2020/12/31 05:10:23;;;;;;;4.32;2.50;;;3.30;99.90;;;;;;5114632;28;20344;-65
2020/12/31 05:13:02;;;;;;;3.57;2.47;;;3.10;99.90;;;;;;5114035;28;20114;-66
2020/12/31 05:15:38;;;;;;;4.13;2.50;;;3.30;99.90;;;;;;5095887;28;20023;-66
2020/12/31 05:18:27;;;;;;;3.97;2.28;;;3.30;99.90;;;;;;5114371;28;20016;-66
2020/12/31 05:20:54;;;;;;;3.95;2.33;;;3.30;99.90;;;;;;5114104;28;20016;-66
2020/12/31 05:23:23;;;;;;;5.80;2.88;;;3.20;99.90;;;;;;5113878;28;20012;-66
2020/12/31 05:25:49;;;;;;;4.22;2.72;;;3.00;99.90;;;;;;5114230;28;20023;-66
2020/12/31 05:28:29;;;;;;;3.38;2.40;;;2.90;99.90;;;;;;5114001;28;20062;-66
2020/12/31 05:31:03;;;;;;;5.25;2.75;;;2.80;99.90;;;;;;5113871;28;20068;-66
2020/12/31 05:33:34;;;;;;;4.78;2.80;;;2.80;99.90;;;;;;5114142;28;20048;-66
2020/12/31 05:36:19;;;;;;;4.20;2.63;;;2.90;99.90;;;;;;5113860;28;20368;-66
2020/12/31 05:39:05;;;;;;;4.22;2.80;;;3.00;99.90;;;;;;5095818;28;20027;-66
2020/12/31 05:41:36;;;;;;;4.65;2.80;;;3.00;99.90;;;;;;5113311;28;20490;-66
2020/12/31 05:44:07;;;;;;;5.80;2.97;;;2.90;99.90;;;;;;5113832;28;20114;-66
2020/12/31 05:46:34;;;;;;;4.13;2.75;;;2.80;99.90;;;;;;5113993;28;20023;-67
2020/12/31 05:49:05;;;;;;;4.35;2.70;;;2.80;99.90;;;;;;5113987;28;20084;-66
2020/12/31 05:51:32;;;;;;;3.83;2.53;;;2.70;99.90;;;;;;5114250;28;20028;-66
2020/12/31 05:54:08;;;;;;;4.00;2.78;;;2.70;99.90;;;;;;5114394;28;20111;-66
2020/12/31 05:56:35;;;;;;;3.97;2.97;;;2.80;99.90;;;;;;5115242;28;20016;-66
2020/12/31 05:59:25;;;;;;;3.58;2.53;;;3.10;99.90;;;;;;5114993;28;20016;-66
2020/12/31 06:01:58;;;;;;;5.18;3.00;;;3.10;99.90;;;;;;5118408;28;20019;-66
2020/12/31 06:04:29;;;;;;;3.63;2.60;;;2.90;99.90;;;;;;5114056;28;20027;-66
2020/12/31 06:07:02;;;;;;;5.55;3.00;;;2.80;99.90;;;;;;5113614;28;20020;-65
2020/12/31 06:09:29;;;;;;;3.63;2.60;;;2.90;99.90;;;;;;5113564;28;20027;-66
2020/12/31 06:12:00;;;;;;;4.53;3.05;;;2.90;99.90;;;;;;5113377;28;20024;-66
2020/12/31 06:14:28;;;;;;;3.75;2.60;;;3.00;99.90;;;;;;5113356;28;20072;-66
2020/12/31 06:16:59;;;;;;;3.58;2.58;;;3.00;99.90;;;;;;5095455;28;20108;-66
2020/12/31 06:19:40;;;;;;;6.28;3.47;;;3.10;99.90;;;;;;5095218;28;20069;-66
2020/12/31 06:22:10;;;;;;;6.75;3.20;;;3.10;99.90;;;;;;5113611;28;20020;-66
2020/12/31 06:24:39;;;;;;;3.92;2.55;;;3.10;99.90;;;;;;5113316;28;20020;-66
2020/12/31 06:27:07;;;;;;;4.18;2.83;;;3.20;99.90;;;;;;5113465;28;20030;-66
2020/12/31 06:29:44;;;;;;;5.32;2.80;;;3.30;99.90;;;;;;5113268;28;20073;-66
2020/12/31 06:32:36;;;;;;;4.22;2.50;;;3.40;99.90;;;;;;5094792;28;20387;-66
2020/12/31 06:35:03;;;;;;;3.88;2.80;;;3.30;99.90;;;;;;5113252;28;20107;-66
2020/12/31 06:37:29;;;;;;;4.07;2.80;;;3.40;99.90;;;;;;5094943;28;20028;-66
2020/12/31 06:40:25;;;;;;;5.18;2.50;;;3.30;99.90;;;;;;5113731;28;20019;-66
2020/12/31 06:43:10;;;;;;;3.90;2.50;;;3.40;99.90;;;;;;5094789;28;20066;-66
2020/12/31 06:45:36;;;;;;;3.38;2.50;;;3.30;99.90;;;;;;5113098;28;20023;-66
2020/12/31 06:48:02;;;;;;;5.70;2.70;;;3.50;99.90;;;;;;5094924;28;20115;-66
2020/12/31 06:50:53;;;;;;;3.80;2.35;;;3.40;99.90;;;;;;5113062;28;20020;-66
2020/12/31 06:53:28;;;;;;;3.88;2.70;;;3.40;99.90;;;;;;5114054;28;20036;-66
2020/12/31 06:55:55;;;;;;;5.35;2.83;;;3.50;99.90;;;;;;5116882;28;20019;-66
2020/12/31 06:58:25;;;;;;;4.53;2.97;;;3.30;99.90;;;;;;5116641;28;20019;-67
2020/12/31 07:00:54;;;;;;;3.28;2.60;;;3.20;99.90;;;;;;5116698;28;20026;-66
2020/12/31 07:03:42;;;;;;;4.65;2.47;;;3.20;99.90;;;;;;5116645;28;20030;-66
2020/12/31 07:06:22;;;;;;;4.03;2.60;;;3.10;99.90;;;;;;5116883;28;20379;-66
2020/12/31 07:08:59;;;;;;;4.57;2.60;;;3.10;99.90;;;;;;5116899;28;20388;-66
2020/12/31 07:11:33;;;;;;;6.78;2.70;;;3.20;99.90;;;;;;5117109;28;20024;-66
2020/12/31 07:14:00;;;;;;;7.63;3.58;;;3.20;99.90;;;;;;5116784;28;20467;-66
2020/12/31 07:16:45;;;;;;;6.43;3.42;;;3.30;99.90;;;;;;5116959;28;20099;-65
2020/12/31 07:19:10;;;;;;;9.68;4.15;;;3.40;99.90;;;;;;5116761;28;20016;-65
2020/12/31 07:21:37;;;;;;;7.13;3.90;;;3.30;99.90;;;;;;5116590;28;20054;-65
2020/12/31 07:24:22;;;;;;;;;;;3.50;99.90;;;;;;5116816;28;20487;-65
2020/12/31 07:26:49;;;;;;;8.02;3.95;;;3.40;99.90;;;;;;5116583;28;19904;-66
2020/12/31 07:29:24;;;;;;;7.25;3.28;;;3.70;99.90;;;;;;5098014;28;20026;-66
2020/12/31 07:31:50;;;;;;;5.97;3.63;;;4.00;99.90;;;;;;5116647;28;20031;-66
2020/12/31 07:34:21;;;;;;;7.82;4.00;;;3.90;99.90;;;;;;5116632;28;20099;-66
2020/12/31 07:36:58;;;;;;;5.55;3.00;;;3.90;99.90;;;;;;5097695;28;20053;-66
2020/12/31 07:39:24;;;;;;;4.72;3.00;;;4.00;99.90;;;;;;5116814;28;20065;-66
2020/12/31 07:41:50;;;;;;;5.70;2.88;;;3.90;99.90;;;;;;5116010;28;20399;-66
2020/12/31 07:44:16;;;;;;;4.68;3.25;;;3.90;99.90;;;;;;5115987;28;20024;-66
2020/12/31 07:46:46;;;;;;;7.60;3.10;;;3.90;99.90;;;;;;5098322;28;20037;-67
2020/12/31 07:49:12;;;;;;;6.05;3.10;;;3.80;99.90;;;;;;5116090;28;20500;-67
2020/12/31 07:51:45;;;;;;;5.90;3.47;;;3.80;99.90;;;;;;5138789;22;20503;-71
2020/12/31 07:54:11;;;;;;;6.07;3.03;;;3.80;99.90;;;;;;5097825;28;20100;-73
2020/12/31 07:56:38;;;;;;;5.90;3.30;;;4.00;99.90;;;;;;5118039;28;20024;-73
2020/12/31 07:59:04;;;;;;;5.35;3.00;;;4.20;99.90;;;;;;5118361;28;20023;-72
2020/12/31 08:01:33;;;;;;;7.53;3.15;;;4.40;99.90;;;;;;5117656;28;20034;-73
2020/12/31 08:04:11;;;;;;;4.80;2.78;;;4.20;99.90;;;;;;5078183;28;20028;-72
2020/12/31 08:06:36;;;;;;;9.55;5.00;;;4.10;99.90;;;;;;5077022;28;20123;-72
2020/12/31 08:09:03;;;;;;;6.00;3.77;;;4.00;99.90;;;;;;5077320;28;20075;-71
2020/12/31 08:11:29;;;;;;;6.53;3.80;;;4.00;99.90;;;;;;5077025;28;20028;-72
2020/12/31 08:14:04;;;;;;;5.38;3.10;;;3.90;99.90;;;;;;5077337;28;20027;-73
2020/12/31 08:16:30;;;;;;;4.10;2.28;;;3.80;99.90;;;;;;5095951;28;20028;-72
2020/12/31 08:18:59;;;;;;;4.33;2.50;;;3.90;99.90;;;;;;5077608;28;20028;-73
2020/12/31 08:21:26;;;;;;;3.65;2.30;;;3.80;99.90;;;;;;5077548;28;20434;-73
2020/12/31 08:24:02;;;;;;;3.72;2.38;;;3.80;99.90;;;;;;5095199;28;20020;-73
2020/12/31 08:26:28;;;;;;;6.28;3.38;;;3.80;99.90;;;;;;5077290;28;20043;-73
2020/12/31 08:28:55;;;;;;;7.45;3.72;;;3.80;99.90;;;;;;5095342;28;20464;-72
2020/12/31 08:31:25;;;;;;;4.97;3.13;;;3.70;99.90;;;;;;5094639;28;20035;-73
2020/12/31 08:33:58;;;;;;;5.70;2.88;;;3.70;99.90;;;;;;5095564;28;20024;-73
2020/12/31 08:36:25;;;;;;;4.60;2.85;;;3.70;99.90;;;;;;5095230;28;20031;-72
2020/12/31 08:38:54;;;;;;;8.48;4.40;;;3.70;99.90;;;;;;5077425;28;20549;-73
2020/12/31 08:41:20;;;;;;;4.32;2.85;;;3.60;99.90;;;;;;5077086;28;20035;-73
2020/12/31 08:43:46;;;;;;;;;;;3.60;99.90;;;;;;5096567;28;20111;-74
2020/12/31 08:46:20;;;;;;;6.35;3.60;;;3.60;99.90;;;;;;5082246;28;19946;-74
2020/12/31 08:49:04;;;;;;;6.47;3.85;;;3.50;99.90;;;;;;5093081;28;20066;-73
2020/12/31 08:51:30;;;;;;;6.88;4.10;;;3.40;99.90;;;;;;5098103;28;20024;-73
2020/12/31 08:53:58;;;;;;;6.77;3.37;;;3.30;99.90;;;;;;5097104;28;20493;-73
2020/12/31 08:56:28;;;;;;;7.00;3.63;;;3.20;99.90;;;;;;5096266;28;20293;-73
2020/12/31 08:59:07;;;;;;;8.68;4.50;;;3.20;99.90;;;;;;5076607;28;20024;-72
2020/12/31 09:01:33;;;;;;;9.38;4.85;;;3.40;99.90;;;;;;5076033;28;20153;-73
2020/12/31 09:04:06;;;;;;;8.05;4.82;;;3.50;99.90;;;;;;5077738;28;20037;-73
2020/12/31 09:06:42;;;;;;;6.47;3.53;;;3.50;99.90;;;;;;5075898;28;20028;-73
2020/12/31 09:09:23;;;;;;;10.70;6.20;;;3.50;99.90;;;;;;5076087;28;20445;-72
2020/12/31 09:12:04;;;;;;;5.80;3.50;;;3.50;99.90;;;;;;5094101;28;20380;-72
2020/12/31 09:14:56;;;;;;;5.22;3.78;;;3.50;99.90;;;;;;5076391;28;20020;-72
2020/12/31 09:17:26;;;;;;;7.35;3.88;;;3.60;99.90;;;;;;5094639;28;20020;-71
2020/12/31 09:19:55;;;;;;;5.07;3.38;;;3.80;99.90;;;;;;5075990;28;20119;-71
2020/12/31 09:22:22;;;;;;;6.50;4.30;;;3.90;99.90;;;;;;5093728;28;20388;-71
2020/12/31 09:24:48;;;;;;;6.60;3.67;;;3.90;99.90;;;;;;5076082;28;20141;-71
2020/12/31 09:27:26;;;;;;;6.57;3.70;;;3.80;99.90;;;;;;5075939;28;20407;-71
2020/12/31 09:29:59;;;;;;;6.28;3.95;;;3.90;99.90;;;;;;5075525;28;20024;-71
2020/12/31 09:32:26;;;;;;;7.22;3.47;;;3.80;99.90;;;;;;5093737;28;20023;-72
2020/12/31 09:34:52;;;;;;;;;;;3.80;99.90;;;;;;5076637;28;20107;-77
2020/12/31 09:37:17;;;;;;;5.20;3.35;;;4.00;99.90;;;;;;5075554;28;20008;-77
2020/12/31 09:39:43;;;;;;;5.67;3.40;;;4.00;99.90;;;;;;5075429;28;20020;-76
2020/12/31 09:42:10;;;;;;;6.28;3.65;;;4.10;99.90;;;;;;5092897;28;20028;-77
2020/12/31 09:44:36;;;;;;;7.90;3.58;;;3.90;99.90;;;;;;5075518;28;20027;-77
2020/12/31 09:47:02;;;;;;;8.75;3.25;;;3.90;99.90;;;;;;5075422;28;20120;-77
2020/12/31 09:49:28;;;;;;;6.20;3.58;;;3.80;99.90;;;;;;5075854;28;20032;-76
2020/12/31 09:51:54;;;;;;;4.73;3.00;;;3.80;99.90;;;;;;5075785;28;20028;-76
2020/12/31 09:54:19;;;;;;;4.90;3.30;;;3.70;99.90;;;;;;5078534;28;20052;-76
2020/12/31 09:56:45;;;;;;;6.03;3.53;;;3.70;99.90;;;;;;5097449;28;20016;-75
2020/12/31 09:59:10;;;;;;;4.60;3.17;;;3.80;99.90;;;;;;5094587;28;20017;-76
2020/12/31 10:01:36;;;;;;;10.83;2.90;;;3.80;99.90;;;;;;5078211;28;20024;-76
2020/12/31 10:04:02;;;;;;;6.03;3.00;;;3.70;99.90;;;;;;5078879;28;20024;-75
2020/12/31 10:06:27;;;;;;;5.90;3.03;;;3.50;99.90;;;;;;5077206;28;20047;-76
2020/12/31 10:08:53;;;;;;;7.70;3.20;;;3.40;99.90;;;;;;5078228;28;20028;-76
2020/12/31 10:11:19;;;;;;;5.27;2.87;;;3.50;99.90;;;;;;5077094;28;20127;-75
2020/12/31 10:13:46;;;;;;;9.30;3.08;;;3.50;99.90;;;;;;5075811;28;20020;-75
2020/12/31 10:16:11;;;;;;;6.82;3.33;;;3.60;99.90;;;;;;5075797;28;20043;-76
2020/12/31 10:18:37;;;;;;;8.50;3.63;;;3.50;99.90;;;;;;5095055;28;20487;-75
2020/12/31 10:21:03;;;;;;;5.10;3.90;;;3.50;99.90;;;;;;5076643;28;20016;-75
2020/12/31 10:23:29;;;;;;;4.80;3.10;;;3.50;99.90;;;;;;5076268;28;20024;-76
2020/12/31 10:25:55;;;;;;;5.93;3.47;;;3.70;99.90;;;;;;5076495;28;20024;-75
2020/12/31 10:28:21;;;;;;;6.40;3.13;;;3.70;99.90;;;;;;5095321;28;20020;-75
2020/12/31 10:30:48;;;;;;;5.22;3.22;;;3.60;99.90;;;;;;5099368;28;20476;-75
2020/12/31 10:33:15;;;;;;;5.50;3.65;;;3.50;99.90;;;;;;5097760;28;20372;-76
2020/12/31 10:35:41;;;;;;;6.85;3.38;;;3.60;99.90;;;;;;5080205;28;20020;-75
2020/12/31 10:38:06;;;;;;;5.95;3.00;;;3.50;99.90;;;;;;5098417;28;20400;-76
2020/12/31 10:40:32;;;;;;;7.07;3.63;;;3.50;99.90;;;;;;5080171;28;20031;-75
2020/12/31 10:42:58;;;;;;;5.80;3.30;;;3.40;99.90;;;;;;5080471;28;20444;-76
2020/12/31 10:45:24;;;;;;;3.83;3.38;;;3.30;99.90;;;;;;5097519;28;20067;-75
2020/12/31 10:47:50;;;;;;;5.60;3.43;;;3.30;99.90;;;;;;5080078;28;20128;-76
2020/12/31 10:50:15;;;;;;;7.50;4.37;;;3.20;99.90;;;;;;5098385;28;20059;-75
2020/12/31 10:52:41;;;;;;;7.20;3.30;;;3.20;99.90;;;;;;5079533;28;20036;-77
2020/12/31 10:55:06;;;;;;;5.73;3.40;;;3.20;99.90;;;;;;5079639;28;20111;-75
2020/12/31 10:57:32;;;;;;;6.40;3.60;;;3.30;99.90;;;;;;5079458;28;20130;-76
2020/12/31 10:59:58;;;;;;;6.00;3.60;;;3.40;99.90;;;;;;5079883;28;20024;-76
2020/12/31 11:02:23;;;;;;;6.37;4.10;;;3.50;99.90;;;;;;5079592;28;20054;-77
2020/12/31 11:04:49;;;;;;;6.73;4.43;;;3.70;99.90;;;;;;5080935;28;20274;-75
2020/12/31 11:07:15;;;;;;;5.43;3.13;;;3.80;99.90;;;;;;5080643;28;20099;-77
2020/12/31 11:09:40;;;;;;;5.47;3.23;;;4.00;99.90;;;;;;5093061;28;20099;-76
2020/12/31 11:12:06;;;;;;;5.57;3.47;;;4.00;99.90;;;;;;5097893;28;20058;-75
2020/12/31 11:14:32;;;;;;;5.57;3.40;;;4.00;99.90;;;;;;5098916;28;20008;-75
2020/12/31 11:16:57;;;;;;;4.83;3.23;;;4.00;99.90;;;;;;5098163;28;20019;-75
2020/12/31 11:19:24;;;;;;;7.17;3.43;;;3.90;99.90;;;;;;5098474;28;20016;-75
2020/12/31 11:21:50;;;;;;;4.88;3.15;;;3.90;99.90;;;;;;5087715;28;20024;-76
2020/12/31 11:24:17;;;;;;;9.70;4.57;;;3.90;99.90;;;;;;5099399;28;20028;-77
2020/12/31 11:26:43;;;;;;;10.20;5.15;;;3.90;99.90;;;;;;5082268;28;20035;-76
2020/12/31 11:29:09;;;;;;;6.43;3.60;;;3.90;99.90;;;;;;5091118;28;20039;-76
2020/12/31 11:31:35;;;;;;;7.10;3.65;;;3.80;99.90;;;;;;5093987;28;20039;-74
2020/12/31 11:34:01;;;;;;;5.65;4.05;;;3.70;99.90;;;;;;5093418;28;20032;-75
2020/12/31 11:36:27;;;;;;;6.93;3.75;;;3.50;99.90;;;;;;5090156;28;20425;-76
2020/12/31 11:38:53;;;;;;;7.72;4.40;;;3.50;99.90;;;;;;5081927;28;20024;-77
2020/12/31 11:41:19;;;;;;;8.25;4.93;;;3.50;99.90;;;;;;5081040;28;20050;-76
2020/12/31 11:43:45;;;;;;;9.07;4.65;;;3.50;99.90;;;;;;5101418;28;20035;-76
2020/12/31 11:46:11;;;;;;;8.35;5.00;;;3.50;99.90;;;;;;5079477;28;20020;-76
2020/12/31 11:48:37;;;;;;;9.18;4.70;;;3.50;99.90;;;;;;5080815;28;20032;-76
2020/12/31 11:51:07;;;;;;;6.88;4.60;;;3.50;99.90;;;;;;5079698;28;20062;-75
2020/12/31 11:53:32;;;;;;;7.13;4.43;;;3.60;99.90;;;;;;5079375;28;20036;-76
2020/12/31 11:56:00;;;;;;;6.73;4.70;;;3.70;99.90;;;;;;5078997;28;20031;-75
2020/12/31 11:58:27;;;;;;;8.27;4.85;;;3.90;99.90;;;;;;5079356;28;20035;-76
2020/12/31 12:00:53;;;;;;;8.30;4.35;;;4.00;99.90;;;;;;5078813;28;20024;-75
2020/12/31 12:03:18;;;;;;;6.75;4.85;;;4.00;99.90;;;;;;5077970;28;20032;-75
2020/12/31 12:05:44;;;;;;;6.60;3.97;;;4.00;99.90;;;;;;5096790;28;20077;-76
2020/12/31 12:08:09;;;;;;;8.13;4.23;;;4.00;99.90;;;;;;5096601;28;20028;-76
2020/12/31 12:10:35;;;;;;;10.07;4.87;;;3.90;99.90;;;;;;5078188;28;20020;-76
2020/12/31 12:13:01;;;;;;;9.60;5.20;;;4.00;99.90;;;;;;5079998;28;20038;-76
2020/12/31 12:15:27;;;;;;;7.40;4.60;;;4.00;99.90;;;;;;5082060;28;20035;-76
2020/12/31 12:17:52;;;;;;;7.10;5.00;;;4.10;99.90;;;;;;5080506;28;20266;-76
2020/12/31 12:20:18;;;;;;;9.63;5.17;;;4.30;99.90;;;;;;5081489;28;20464;-76
2020/12/31 12:22:44;;;;;;;7.22;4.28;;;4.40;99.90;;;;;;5097393;28;20024;-76
2020/12/31 12:25:11;;;;;;;7.88;5.18;;;4.60;99.90;;;;;;5082051;28;20550;-76
2020/12/31 12:27:37;;;;;;;;;;;4.70;99.90;;;;;;5080071;28;20031;-77
2020/12/31 12:30:10;;;;;;;10.23;5.00;;;4.70;99.90;;;;;;5079151;28;20458;-76
2020/12/31 12:32:37;;;;;;;15.82;9.98;;;4.60;99.90;;;;;;5097969;28;20031;-76
2020/12/31 12:35:04;;;;;;;9.23;4.68;;;4.60;99.90;;;;;;5080355;28;20023;-77
2020/12/31 12:37:30;;;;;;;5.82;3.97;;;4.60;99.90;;;;;;5079656;28;20024;-76
2020/12/31 12:39:55;;;;;;;4.80;3.10;;;4.50;99.90;;;;;;5078917;28;20024;-76
2020/12/31 12:42:21;;;;;;;6.33;3.60;;;4.50;99.90;;;;;;5078844;28;20028;-76
2020/12/31 12:44:47;;;;;;;5.60;3.67;;;4.50;99.90;;;;;;5078524;28;20031;-75
2020/12/31 12:47:12;;;;;;;7.40;3.70;;;4.60;99.90;;;;;;5084756;28;20036;-76
2020/12/31 12:49:39;;;;;;;9.10;4.13;;;4.60;99.90;;;;;;5083774;28;20479;-74
2020/12/31 12:52:05;;;;;;;7.22;4.47;;;4.70;99.90;;;;;;5080218;28;20032;-75
2020/12/31 12:54:30;;;;;;;8.65;4.15;;;4.80;99.90;;;;;;5099369;28;20045;-75
2020/12/31 12:56:56;;;;;;;9.83;4.97;;;4.80;99.90;;;;;;5097160;28;20012;-76
2020/12/31 12:59:21;;;;;;;9.83;4.43;;;4.80;99.90;;;;;;5077761;28;20020;-76
2020/12/31 13:01:47;;;;;;;9.03;4.10;;;4.80;99.90;;;;;;5095770;28;20024;-75